sensor_id;sensor_type;location;lat;lon;timestamp;temperature;humidity
10192;DHT22;17580;50.850;4.504;2023-05-19T00:00:06;9.60;24.20
10192;DHT22;17580;50.850;4.504;2023-05-19T00:02:34;9.60;24.80
10192;DHT22;17580;50.850;4.504;2023-05-19T00:05:04;9.60;25.60
10192;DHT22;17580;50.850;4.504;2023-05-19T00:07:32;9.60;25.20
10192;DHT22;17580;50.850;4.504;2023-05-19T00:10:05;9.60;25.50
10192;DHT22;17580;50.850;4.504;2023-05-19T00:12:32;9.50;25.90
10192;DHT22;17580;50.850;4.504;2023-05-19T00:15:00;9.50;26.00
10192;DHT22;17580;50.850;4.504;2023-05-19T00:17:27;9.50;25.70
10192;DHT22;17580;50.850;4.504;2023-05-19T00:19:54;9.50;26.80
10192;DHT22;17580;50.850;4.504;2023-05-19T00:22:21;9.40;26.20
10192;DHT22;17580;50.850;4.504;2023-05-19T00:24:48;9.50;27.10
10192;DHT22;17580;50.850;4.504;2023-05-19T00:27:17;9.40;27.30
10192;DHT22;17580;50.850;4.504;2023-05-19T00:29:44;9.40;27.00
10192;DHT22;17580;50.850;4.504;2023-05-19T00:32:11;9.40;27.40
10192;DHT22;17580;50.850;4.504;2023-05-19T00:34:38;9.40;26.20
10192;DHT22;17580;50.850;4.504;2023-05-19T00:37:05;9.30;26.50
10192;DHT22;17580;50.850;4.504;2023-05-19T00:39:32;9.30;27.50
10192;DHT22;17580;50.850;4.504;2023-05-19T00:41:59;9.30;27.30
10192;DHT22;17580;50.850;4.504;2023-05-19T00:44:28;9.30;27.10
10192;DHT22;17580;50.850;4.504;2023-05-19T00:46:56;9.30;27.10
10192;DHT22;17580;50.850;4.504;2023-05-19T00:49:23;9.20;26.80
10192;DHT22;17580;50.850;4.504;2023-05-19T00:51:50;9.10;26.60
10192;DHT22;17580;50.850;4.504;2023-05-19T00:54:17;9.10;27.20
10192;DHT22;17580;50.850;4.504;2023-05-19T00:56:46;9.10;27.50
10192;DHT22;17580;50.850;4.504;2023-05-19T00:59:14;9.00;27.80
10192;DHT22;17580;50.850;4.504;2023-05-19T01:01:42;9.00;28.10
10192;DHT22;17580;50.850;4.504;2023-05-19T01:04:13;9.00;28.00
10192;DHT22;17580;50.850;4.504;2023-05-19T01:06:41;8.90;28.20
10192;DHT22;17580;50.850;4.504;2023-05-19T01:09:08;8.80;28.10
10192;DHT22;17580;50.850;4.504;2023-05-19T01:11:36;8.80;28.60
10192;DHT22;17580;50.850;4.504;2023-05-19T01:14:03;8.80;28.60
10192;DHT22;17580;50.850;4.504;2023-05-19T01:16:33;8.80;29.40
10192;DHT22;17580;50.850;4.504;2023-05-19T01:19:13;8.80;28.80
10192;DHT22;17580;50.850;4.504;2023-05-19T01:31:04;8.70;30.30
10192;DHT22;17580;50.850;4.504;2023-05-19T01:33:32;8.60;30.20
10192;DHT22;17580;50.850;4.504;2023-05-19T01:36:02;8.60;29.90
10192;DHT22;17580;50.850;4.504;2023-05-19T01:38:29;8.60;30.40
10192;DHT22;17580;50.850;4.504;2023-05-19T01:40:59;8.60;31.50
10192;DHT22;17580;50.850;4.504;2023-05-19T01:43:28;8.50;30.80
10192;DHT22;17580;50.850;4.504;2023-05-19T01:45:56;8.50;31.30
10192;DHT22;17580;50.850;4.504;2023-05-19T01:48:26;8.50;31.10
10192;DHT22;17580;50.850;4.504;2023-05-19T01:50:54;8.40;31.80
10192;DHT22;17580;50.850;4.504;2023-05-19T01:53:22;8.40;32.00
10192;DHT22;17580;50.850;4.504;2023-05-19T01:55:51;8.50;33.80
10192;DHT22;17580;50.850;4.504;2023-05-19T01:58:24;8.40;32.60
10192;DHT22;17580;50.850;4.504;2023-05-19T02:01:02;8.40;32.30
10192;DHT22;17580;50.850;4.504;2023-05-19T02:03:47;8.40;34.60
10192;DHT22;17580;50.850;4.504;2023-05-19T02:06:27;8.40;35.00
10192;DHT22;17580;50.850;4.504;2023-05-19T02:08:59;8.40;34.10
10192;DHT22;17580;50.850;4.504;2023-05-19T02:11:35;8.40;33.80
10192;DHT22;17580;50.850;4.504;2023-05-19T02:14:08;8.30;33.70
10192;DHT22;17580;50.850;4.504;2023-05-19T02:16:42;8.30;33.80
10192;DHT22;17580;50.850;4.504;2023-05-19T02:19:21;8.30;34.40
10192;DHT22;17580;50.850;4.504;2023-05-19T02:21:48;8.30;35.00
10192;DHT22;17580;50.850;4.504;2023-05-19T02:24:15;8.30;34.30
10192;DHT22;17580;50.850;4.504;2023-05-19T02:26:42;8.20;35.00
10192;DHT22;17580;50.850;4.504;2023-05-19T02:29:09;8.20;36.00
10192;DHT22;17580;50.850;4.504;2023-05-19T02:31:36;8.20;35.20
10192;DHT22;17580;50.850;4.504;2023-05-19T02:34:03;8.20;35.50
10192;DHT22;17580;50.850;4.504;2023-05-19T02:36:33;8.10;35.50
10192;DHT22;17580;50.850;4.504;2023-05-19T02:39:01;8.10;35.40
10192;DHT22;17580;50.850;4.504;2023-05-19T02:41:28;8.00;35.60
10192;DHT22;17580;50.850;4.504;2023-05-19T02:43:55;8.00;36.40
10192;DHT22;17580;50.850;4.504;2023-05-19T02:46:23;8.00;36.80
10192;DHT22;17580;50.850;4.504;2023-05-19T02:48:50;8.00;36.70
10192;DHT22;17580;50.850;4.504;2023-05-19T02:51:17;8.00;36.60
10192;DHT22;17580;50.850;4.504;2023-05-19T02:53:45;8.00;36.50
10192;DHT22;17580;50.850;4.504;2023-05-19T02:56:13;7.90;36.80
10192;DHT22;17580;50.850;4.504;2023-05-19T02:58:40;7.90;36.80
10192;DHT22;17580;50.850;4.504;2023-05-19T03:01:09;8.00;36.60
10192;DHT22;17580;50.850;4.504;2023-05-19T03:03:36;7.90;36.80
10192;DHT22;17580;50.850;4.504;2023-05-19T03:06:03;7.90;37.90
10192;DHT22;17580;50.850;4.504;2023-05-19T03:08:33;8.00;38.40
10192;DHT22;17580;50.850;4.504;2023-05-19T03:11:01;8.00;38.90
10192;DHT22;17580;50.850;4.504;2023-05-19T03:13:28;8.00;38.80
10192;DHT22;17580;50.850;4.504;2023-05-19T03:15:56;7.90;39.10
10192;DHT22;17580;50.850;4.504;2023-05-19T03:18:24;8.00;39.50
10192;DHT22;17580;50.850;4.504;2023-05-19T03:20:51;7.90;38.30
10192;DHT22;17580;50.850;4.504;2023-05-19T03:23:19;7.90;38.60
10192;DHT22;17580;50.850;4.504;2023-05-19T03:25:46;7.90;39.50
10192;DHT22;17580;50.850;4.504;2023-05-19T03:28:15;7.90;39.40
10192;DHT22;17580;50.850;4.504;2023-05-19T03:30:42;7.80;39.70
10192;DHT22;17580;50.850;4.504;2023-05-19T03:33:09;7.80;39.90
10192;DHT22;17580;50.850;4.504;2023-05-19T03:35:36;7.80;40.20
10192;DHT22;17580;50.850;4.504;2023-05-19T03:38:03;7.80;40.20
10192;DHT22;17580;50.850;4.504;2023-05-19T03:40:30;7.80;40.60
10192;DHT22;17580;50.850;4.504;2023-05-19T03:42:57;7.80;40.30
10192;DHT22;17580;50.850;4.504;2023-05-19T03:45:27;7.70;40.60
10192;DHT22;17580;50.850;4.504;2023-05-19T03:47:54;7.70;40.10
10192;DHT22;17580;50.850;4.504;2023-05-19T03:50:21;7.80;41.30
10192;DHT22;17580;50.850;4.504;2023-05-19T03:52:48;7.80;41.20
10192;DHT22;17580;50.850;4.504;2023-05-19T03:55:15;7.80;42.20
10192;DHT22;17580;50.850;4.504;2023-05-19T03:57:44;7.80;41.30
10192;DHT22;17580;50.850;4.504;2023-05-19T04:00:12;7.90;41.00
10192;DHT22;17580;50.850;4.504;2023-05-19T04:02:41;7.80;41.50
10192;DHT22;17580;50.850;4.504;2023-05-19T04:05:09;7.80;41.50
10192;DHT22;17580;50.850;4.504;2023-05-19T04:07:36;7.80;41.40
10192;DHT22;17580;50.850;4.504;2023-05-19T04:10:04;7.90;41.30
10192;DHT22;17580;50.850;4.504;2023-05-19T04:12:31;7.90;40.70
10192;DHT22;17580;50.850;4.504;2023-05-19T04:14:58;7.90;40.50
10192;DHT22;17580;50.850;4.504;2023-05-19T04:17:25;7.90;40.30
10192;DHT22;17580;50.850;4.504;2023-05-19T04:19:54;7.90;40.80
10192;DHT22;17580;50.850;4.504;2023-05-19T04:22:21;7.90;40.90
10192;DHT22;17580;50.850;4.504;2023-05-19T04:24:48;7.90;40.60
10192;DHT22;17580;50.850;4.504;2023-05-19T04:27:17;7.90;40.90
10192;DHT22;17580;50.850;4.504;2023-05-19T04:29:44;8.00;40.90
10192;DHT22;17580;50.850;4.504;2023-05-19T04:32:12;8.00;40.50
10192;DHT22;17580;50.850;4.504;2023-05-19T04:34:42;8.00;41.00
10192;DHT22;17580;50.850;4.504;2023-05-19T04:37:13;8.00;41.10
10192;DHT22;17580;50.850;4.504;2023-05-19T04:39:41;8.00;41.20
10192;DHT22;17580;50.850;4.504;2023-05-19T04:42:09;8.00;41.10
10192;DHT22;17580;50.850;4.504;2023-05-19T04:44:37;8.10;41.90
10192;DHT22;17580;50.850;4.504;2023-05-19T04:47:06;8.00;42.00
10192;DHT22;17580;50.850;4.504;2023-05-19T04:49:33;8.00;42.40
10192;DHT22;17580;50.850;4.504;2023-05-19T04:52:05;8.00;42.30
10192;DHT22;17580;50.850;4.504;2023-05-19T04:54:35;8.00;42.60
10192;DHT22;17580;50.850;4.504;2023-05-19T04:57:03;8.10;42.00
10192;DHT22;17580;50.850;4.504;2023-05-19T04:59:30;8.10;43.00
10192;DHT22;17580;50.850;4.504;2023-05-19T05:01:57;8.10;42.90
10192;DHT22;17580;50.850;4.504;2023-05-19T05:04:24;8.10;43.50
10192;DHT22;17580;50.850;4.504;2023-05-19T05:06:51;8.20;41.30
10192;DHT22;17580;50.850;4.504;2023-05-19T05:09:18;8.30;41.10
10192;DHT22;17580;50.850;4.504;2023-05-19T05:11:47;8.50;40.80
10192;DHT22;17580;50.850;4.504;2023-05-19T05:14:14;8.50;40.30
10192;DHT22;17580;50.850;4.504;2023-05-19T05:16:42;8.50;40.10
10192;DHT22;17580;50.850;4.504;2023-05-19T05:19:09;8.60;39.80
10192;DHT22;17580;50.850;4.504;2023-05-19T05:21:37;8.60;40.00
10192;DHT22;17580;50.850;4.504;2023-05-19T05:24:05;8.60;39.60
10192;DHT22;17580;50.850;4.504;2023-05-19T05:26:33;8.70;39.00
10192;DHT22;17580;50.850;4.504;2023-05-19T05:29:02;8.70;39.30
10192;DHT22;17580;50.850;4.504;2023-05-19T05:31:29;8.70;38.90
10192;DHT22;17580;50.850;4.504;2023-05-19T05:33:56;8.80;40.00
10192;DHT22;17580;50.850;4.504;2023-05-19T05:36:23;8.80;39.10
10192;DHT22;17580;50.850;4.504;2023-05-19T05:38:51;8.90;38.70
10192;DHT22;17580;50.850;4.504;2023-05-19T05:41:18;9.00;38.70
10192;DHT22;17580;50.850;4.504;2023-05-19T05:43:46;9.00;38.10
10192;DHT22;17580;50.850;4.504;2023-05-19T05:46:15;9.00;38.10
10192;DHT22;17580;50.850;4.504;2023-05-19T05:48:42;9.00;37.40
10192;DHT22;17580;50.850;4.504;2023-05-19T05:51:10;9.10;38.00
10192;DHT22;17580;50.850;4.504;2023-05-19T05:53:40;9.10;37.30
10192;DHT22;17580;50.850;4.504;2023-05-19T05:56:10;9.10;38.10
10192;DHT22;17580;50.850;4.504;2023-05-19T05:58:38;9.20;38.50
10192;DHT22;17580;50.850;4.504;2023-05-19T06:01:06;9.30;39.00
10192;DHT22;17580;50.850;4.504;2023-05-19T06:03:39;9.30;38.10
10192;DHT22;17580;50.850;4.504;2023-05-19T06:06:07;9.30;37.40
10192;DHT22;17580;50.850;4.504;2023-05-19T06:08:34;9.40;38.10
10192;DHT22;17580;50.850;4.504;2023-05-19T06:11:01;9.40;37.90
10192;DHT22;17580;50.850;4.504;2023-05-19T06:13:33;9.40;38.10
10192;DHT22;17580;50.850;4.504;2023-05-19T06:16:00;9.50;38.80
10192;DHT22;17580;50.850;4.504;2023-05-19T06:18:27;9.50;38.20
10192;DHT22;17580;50.850;4.504;2023-05-19T06:20:56;9.60;38.40
10192;DHT22;17580;50.850;4.504;2023-05-19T06:23:23;9.70;39.30
10192;DHT22;17580;50.850;4.504;2023-05-19T06:25:51;9.80;36.20
10192;DHT22;17580;50.850;4.504;2023-05-19T06:28:18;9.90;36.10
10192;DHT22;17580;50.850;4.504;2023-05-19T06:30:45;9.90;37.30
10192;DHT22;17580;50.850;4.504;2023-05-19T06:33:12;9.90;37.60
10192;DHT22;17580;50.850;4.504;2023-05-19T06:35:39;10.00;36.80
10192;DHT22;17580;50.850;4.504;2023-05-19T06:38:07;10.00;37.20
10192;DHT22;17580;50.850;4.504;2023-05-19T06:40:35;10.10;37.20
10192;DHT22;17580;50.850;4.504;2023-05-19T06:43:02;10.20;36.00
10192;DHT22;17580;50.850;4.504;2023-05-19T06:45:29;10.20;36.00
10192;DHT22;17580;50.850;4.504;2023-05-19T06:47:56;10.20;34.90
10192;DHT22;17580;50.850;4.504;2023-05-19T06:50:23;10.30;36.30
10192;DHT22;17580;50.850;4.504;2023-05-19T06:52:51;10.40;36.50
10192;DHT22;17580;50.850;4.504;2023-05-19T06:55:19;10.40;36.30
10192;DHT22;17580;50.850;4.504;2023-05-19T06:57:46;10.50;35.90
10192;DHT22;17580;50.850;4.504;2023-05-19T07:00:14;10.60;35.40
10192;DHT22;17580;50.850;4.504;2023-05-19T07:02:41;10.70;35.80
10192;DHT22;17580;50.850;4.504;2023-05-19T07:05:08;10.70;35.10
10192;DHT22;17580;50.850;4.504;2023-05-19T07:07:36;10.70;35.30
10192;DHT22;17580;50.850;4.504;2023-05-19T07:10:03;10.80;36.50
10192;DHT22;17580;50.850;4.504;2023-05-19T07:12:32;10.90;35.10
10192;DHT22;17580;50.850;4.504;2023-05-19T07:14:59;10.90;36.30
10192;DHT22;17580;50.850;4.504;2023-05-19T07:17:26;11.00;36.00
10192;DHT22;17580;50.850;4.504;2023-05-19T07:19:53;11.10;36.90
10192;DHT22;17580;50.850;4.504;2023-05-19T07:22:20;11.20;36.30
10192;DHT22;17580;50.850;4.504;2023-05-19T07:24:48;11.30;37.30
10192;DHT22;17580;50.850;4.504;2023-05-19T07:27:15;11.40;34.70
10192;DHT22;17580;50.850;4.504;2023-05-19T07:29:44;11.50;34.70
10192;DHT22;17580;50.850;4.504;2023-05-19T07:32:11;11.60;34.80
10192;DHT22;17580;50.850;4.504;2023-05-19T07:34:39;11.60;34.10
10192;DHT22;17580;50.850;4.504;2023-05-19T07:37:06;11.70;34.90
10192;DHT22;17580;50.850;4.504;2023-05-19T07:39:33;11.80;34.10
10192;DHT22;17580;50.850;4.504;2023-05-19T07:42:00;11.80;32.30
10192;DHT22;17580;50.850;4.504;2023-05-19T07:44:27;11.80;33.80
10192;DHT22;17580;50.850;4.504;2023-05-19T07:46:57;11.90;33.70
10192;DHT22;17580;50.850;4.504;2023-05-19T07:49:24;11.90;34.20
10192;DHT22;17580;50.850;4.504;2023-05-19T07:51:51;12.00;34.10
10192;DHT22;17580;50.850;4.504;2023-05-19T07:54:18;12.10;35.50
10192;DHT22;17580;50.850;4.504;2023-05-19T07:56:45;12.20;34.50
10192;DHT22;17580;50.850;4.504;2023-05-19T07:59:13;12.30;34.80
10192;DHT22;17580;50.850;4.504;2023-05-19T08:01:40;12.40;33.90
10192;DHT22;17580;50.850;4.504;2023-05-19T08:04:09;12.50;34.00
10192;DHT22;17580;50.850;4.504;2023-05-19T08:06:36;12.70;32.60
10192;DHT22;17580;50.850;4.504;2023-05-19T08:09:04;12.80;31.20
10192;DHT22;17580;50.850;4.504;2023-05-19T08:11:31;12.90;31.30
10192;DHT22;17580;50.850;4.504;2023-05-19T08:13:58;13.00;31.30
10192;DHT22;17580;50.850;4.504;2023-05-19T08:16:25;13.10;31.90
10192;DHT22;17580;50.850;4.504;2023-05-19T08:18:52;13.20;31.40
10192;DHT22;17580;50.850;4.504;2023-05-19T08:21:21;13.20;29.40
10192;DHT22;17580;50.850;4.504;2023-05-19T08:23:48;13.30;30.00
10192;DHT22;17580;50.850;4.504;2023-05-19T08:26:15;13.30;29.20
10192;DHT22;17580;50.850;4.504;2023-05-19T08:28:42;13.50;30.00
10192;DHT22;17580;50.850;4.504;2023-05-19T08:31:09;13.50;30.00
10192;DHT22;17580;50.850;4.504;2023-05-19T08:33:36;13.60;29.20
10192;DHT22;17580;50.850;4.504;2023-05-19T08:36:04;13.70;27.90
10192;DHT22;17580;50.850;4.504;2023-05-19T08:38:33;13.80;27.90
10192;DHT22;17580;50.850;4.504;2023-05-19T08:41:00;13.90;28.20
10192;DHT22;17580;50.850;4.504;2023-05-19T08:43:27;14.00;28.10
10192;DHT22;17580;50.850;4.504;2023-05-19T08:45:54;14.00;26.20
10192;DHT22;17580;50.850;4.504;2023-05-19T08:48:21;14.10;26.40
10192;DHT22;17580;50.850;4.504;2023-05-19T08:50:53;14.30;26.20
10192;DHT22;17580;50.850;4.504;2023-05-19T08:53:26;14.40;25.70
10192;DHT22;17580;50.850;4.504;2023-05-19T08:56:01;14.50;26.30
10192;DHT22;17580;50.850;4.504;2023-05-19T08:58:34;14.60;26.00
10192;DHT22;17580;50.850;4.504;2023-05-19T09:01:04;14.80;25.80
10192;DHT22;17580;50.850;4.504;2023-05-19T09:03:32;15.00;26.70
10192;DHT22;17580;50.850;4.504;2023-05-19T09:06:04;15.20;26.90
10192;DHT22;17580;50.850;4.504;2023-05-19T09:08:31;15.50;23.10
10192;DHT22;17580;50.850;4.504;2023-05-19T09:11:00;16.00;22.30
10192;DHT22;17580;50.850;4.504;2023-05-19T09:13:27;16.30;22.80
10192;DHT22;17580;50.850;4.504;2023-05-19T09:15:55;16.60;22.00
10192;DHT22;17580;50.850;4.504;2023-05-19T09:18:23;17.80;19.20
10192;DHT22;17580;50.850;4.504;2023-05-19T09:20:55;19.10;18.10
10192;DHT22;17580;50.850;4.504;2023-05-19T09:23:26;20.40;17.00
10192;DHT22;17580;50.850;4.504;2023-05-19T09:25:55;21.00;11.10
10192;DHT22;17580;50.850;4.504;2023-05-19T09:28:25;21.60;10.80
10192;DHT22;17580;50.850;4.504;2023-05-19T09:31:02;22.40;9.00
10192;DHT22;17580;50.850;4.504;2023-05-19T09:33:32;23.10;3.80
10192;DHT22;17580;50.850;4.504;2023-05-19T09:35:59;23.30;3.60
10192;DHT22;17580;50.850;4.504;2023-05-19T09:38:27;23.80;3.80
10192;DHT22;17580;50.850;4.504;2023-05-19T09:40:56;24.00;3.00
10192;DHT22;17580;50.850;4.504;2023-05-19T09:43:26;24.50;1.00
10192;DHT22;17580;50.850;4.504;2023-05-19T09:45:56;24.80;1.00
10192;DHT22;17580;50.850;4.504;2023-05-19T09:48:25;24.80;1.00
10192;DHT22;17580;50.850;4.504;2023-05-19T09:50:52;25.20;1.00
10192;DHT22;17580;50.850;4.504;2023-05-19T09:53:20;25.50;1.00
10192;DHT22;17580;50.850;4.504;2023-05-19T09:55:48;25.60;1.00
10192;DHT22;17580;50.850;4.504;2023-05-19T09:58:15;25.40;1.00
10192;DHT22;17580;50.850;4.504;2023-05-19T10:00:45;25.50;1.00
10192;DHT22;17580;50.850;4.504;2023-05-19T10:03:13;25.70;1.00
10192;DHT22;17580;50.850;4.504;2023-05-19T10:05:42;25.30;1.00
10192;DHT22;17580;50.850;4.504;2023-05-19T10:08:11;25.40;1.00
10192;DHT22;17580;50.850;4.504;2023-05-19T10:10:38;26.10;1.00
10192;DHT22;17580;50.850;4.504;2023-05-19T10:13:05;26.20;1.00
10192;DHT22;17580;50.850;4.504;2023-05-19T10:15:32;24.90;1.00
10192;DHT22;17580;50.850;4.504;2023-05-19T10:18:02;23.60;1.00
10192;DHT22;17580;50.850;4.504;2023-05-19T10:20:30;23.00;1.00
10192;DHT22;17580;50.850;4.504;2023-05-19T10:22:59;24.20;1.00
10192;DHT22;17580;50.850;4.504;2023-05-19T10:25:28;23.00;1.00
10192;DHT22;17580;50.850;4.504;2023-05-19T10:28:01;24.30;1.00
10192;DHT22;17580;50.850;4.504;2023-05-19T10:30:33;25.00;1.00
10192;DHT22;17580;50.850;4.504;2023-05-19T10:33:05;25.50;1.00
10192;DHT22;17580;50.850;4.504;2023-05-19T10:35:54;24.90;1.00
10192;DHT22;17580;50.850;4.504;2023-05-19T10:38:31;24.90;1.00
10192;DHT22;17580;50.850;4.504;2023-05-19T10:41:06;26.00;1.00
10192;DHT22;17580;50.850;4.504;2023-05-19T10:43:46;25.50;1.00
10192;DHT22;17580;50.850;4.504;2023-05-19T10:46:13;24.60;1.00
10192;DHT22;17580;50.850;4.504;2023-05-19T10:48:45;23.40;1.00
10192;DHT22;17580;50.850;4.504;2023-05-19T10:51:13;23.90;1.00
10192;DHT22;17580;50.850;4.504;2023-05-19T10:53:42;25.00;1.00
10192;DHT22;17580;50.850;4.504;2023-05-19T10:56:26;24.10;1.00
10192;DHT22;17580;50.850;4.504;2023-05-19T10:58:55;24.60;1.00
10192;DHT22;17580;50.850;4.504;2023-05-19T11:01:29;25.50;1.00
10192;DHT22;17580;50.850;4.504;2023-05-19T11:04:04;25.90;1.00
10192;DHT22;17580;50.850;4.504;2023-05-19T11:06:32;25.60;1.00
10192;DHT22;17580;50.850;4.504;2023-05-19T11:09:08;24.50;1.00
10192;DHT22;17580;50.850;4.504;2023-05-19T11:11:46;25.50;1.00
10192;DHT22;17580;50.850;4.504;2023-05-19T11:14:14;25.70;1.00
10192;DHT22;17580;50.850;4.504;2023-05-19T11:16:45;26.20;1.00
10192;DHT22;17580;50.850;4.504;2023-05-19T11:19:18;26.60;1.00
10192;DHT22;17580;50.850;4.504;2023-05-19T11:21:49;26.90;1.00
10192;DHT22;17580;50.850;4.504;2023-05-19T11:24:32;27.20;1.00
10192;DHT22;17580;50.850;4.504;2023-05-19T11:27:17;27.40;1.00
10192;DHT22;17580;50.850;4.504;2023-05-19T11:29:44;27.00;1.00
10192;DHT22;17580;50.850;4.504;2023-05-19T11:32:13;27.00;1.00
10192;DHT22;17580;50.850;4.504;2023-05-19T11:34:43;27.30;1.00
10192;DHT22;17580;50.850;4.504;2023-05-19T11:37:11;27.40;1.00
10192;DHT22;17580;50.850;4.504;2023-05-19T11:39:38;27.30;1.00
10192;DHT22;17580;50.850;4.504;2023-05-19T11:42:07;27.50;1.00
10192;DHT22;17580;50.850;4.504;2023-05-19T11:44:34;27.40;1.00
10192;DHT22;17580;50.850;4.504;2023-05-19T11:47:03;27.90;1.00
10192;DHT22;17580;50.850;4.504;2023-05-19T11:49:30;26.80;1.00
10192;DHT22;17580;50.850;4.504;2023-05-19T11:52:00;26.50;1.00
10192;DHT22;17580;50.850;4.504;2023-05-19T11:54:31;24.70;1.00
10192;DHT22;17580;50.850;4.504;2023-05-19T11:57:01;24.00;1.00
10192;DHT22;17580;50.850;4.504;2023-05-19T11:59:29;25.00;1.00
10192;DHT22;17580;50.850;4.504;2023-05-19T12:01:59;26.00;1.00
10192;DHT22;17580;50.850;4.504;2023-05-19T12:04:26;26.40;1.00
10192;DHT22;17580;50.850;4.504;2023-05-19T12:06:53;27.00;1.00
10192;DHT22;17580;50.850;4.504;2023-05-19T12:09:23;27.20;1.00
10192;DHT22;17580;50.850;4.504;2023-05-19T12:11:50;26.80;1.00
10192;DHT22;17580;50.850;4.504;2023-05-19T12:14:19;26.90;1.00
10192;DHT22;17580;50.850;4.504;2023-05-19T12:16:46;27.00;1.00
10192;DHT22;17580;50.850;4.504;2023-05-19T12:19:13;26.90;1.00
10192;DHT22;17580;50.850;4.504;2023-05-19T12:21:40;26.90;1.00
10192;DHT22;17580;50.850;4.504;2023-05-19T12:24:07;27.30;1.00
10192;DHT22;17580;50.850;4.504;2023-05-19T12:26:36;26.60;1.00
10192;DHT22;17580;50.850;4.504;2023-05-19T12:29:04;26.10;1.00
10192;DHT22;17580;50.850;4.504;2023-05-19T12:31:32;25.60;1.00
10192;DHT22;17580;50.850;4.504;2023-05-19T12:33:59;25.60;1.00
10192;DHT22;17580;50.850;4.504;2023-05-19T12:36:27;25.60;1.00
10192;DHT22;17580;50.850;4.504;2023-05-19T12:38:55;25.60;1.00
10192;DHT22;17580;50.850;4.504;2023-05-19T12:41:23;25.50;1.00
10192;DHT22;17580;50.850;4.504;2023-05-19T12:43:53;25.70;1.00
10192;DHT22;17580;50.850;4.504;2023-05-19T12:46:20;25.20;1.00
10192;DHT22;17580;50.850;4.504;2023-05-19T12:48:47;25.20;1.00
10192;DHT22;17580;50.850;4.504;2023-05-19T12:51:18;25.20;1.00
10192;DHT22;17580;50.850;4.504;2023-05-19T12:53:45;24.60;1.00
10192;DHT22;17580;50.850;4.504;2023-05-19T12:56:14;24.90;1.00
10192;DHT22;17580;50.850;4.504;2023-05-19T12:58:42;25.10;1.00
10192;DHT22;17580;50.850;4.504;2023-05-19T13:01:17;25.20;1.00
10192;DHT22;17580;50.850;4.504;2023-05-19T13:03:44;25.10;1.00
10192;DHT22;17580;50.850;4.504;2023-05-19T13:06:11;24.70;1.00
10192;DHT22;17580;50.850;4.504;2023-05-19T13:08:40;24.00;1.00
10192;DHT22;17580;50.850;4.504;2023-05-19T13:11:07;24.00;1.00
10192;DHT22;17580;50.850;4.504;2023-05-19T13:13:34;24.00;1.00
10192;DHT22;17580;50.850;4.504;2023-05-19T13:16:01;23.80;1.00
10192;DHT22;17580;50.850;4.504;2023-05-19T13:18:30;23.60;1.00
10192;DHT22;17580;50.850;4.504;2023-05-19T13:20:57;24.00;1.00
10192;DHT22;17580;50.850;4.504;2023-05-19T13:23:24;24.10;1.00
10192;DHT22;17580;50.850;4.504;2023-05-19T13:25:51;24.00;1.00
10192;DHT22;17580;50.850;4.504;2023-05-19T13:28:18;23.90;1.00
10192;DHT22;17580;50.850;4.504;2023-05-19T13:30:45;24.00;1.00
10192;DHT22;17580;50.850;4.504;2023-05-19T13:33:14;23.70;1.00
10192;DHT22;17580;50.850;4.504;2023-05-19T13:35:42;24.00;1.00
10192;DHT22;17580;50.850;4.504;2023-05-19T13:38:09;23.70;1.00
10192;DHT22;17580;50.850;4.504;2023-05-19T13:40:37;24.00;1.00
10192;DHT22;17580;50.850;4.504;2023-05-19T13:43:04;24.10;1.00
10192;DHT22;17580;50.850;4.504;2023-05-19T13:45:32;24.30;1.00
10192;DHT22;17580;50.850;4.504;2023-05-19T13:47:59;24.20;1.00
10192;DHT22;17580;50.850;4.504;2023-05-19T13:50:25;23.60;1.00
10192;DHT22;17580;50.850;4.504;2023-05-19T13:52:54;23.10;1.00
10192;DHT22;17580;50.850;4.504;2023-05-19T13:55:21;23.00;1.00
10192;DHT22;17580;50.850;4.504;2023-05-19T13:57:48;22.90;1.00
10192;DHT22;17580;50.850;4.504;2023-05-19T14:00:16;23.10;1.00
10192;DHT22;17580;50.850;4.504;2023-05-19T14:02:43;23.10;1.00
10192;DHT22;17580;50.850;4.504;2023-05-19T14:05:10;23.10;1.00
10192;DHT22;17580;50.850;4.504;2023-05-19T14:07:37;23.40;1.00
10192;DHT22;17580;50.850;4.504;2023-05-19T14:10:07;23.60;1.00
10192;DHT22;17580;50.850;4.504;2023-05-19T14:12:34;23.30;1.00
10192;DHT22;17580;50.850;4.504;2023-05-19T14:15:02;23.00;1.00
10192;DHT22;17580;50.850;4.504;2023-05-19T14:17:29;22.40;1.00
10192;DHT22;17580;50.850;4.504;2023-05-19T14:19:57;22.40;1.00
10192;DHT22;17580;50.850;4.504;2023-05-19T14:22:24;22.50;1.00
10192;DHT22;17580;50.850;4.504;2023-05-19T14:24:51;22.60;1.00
10192;DHT22;17580;50.850;4.504;2023-05-19T14:27:19;22.80;1.00
10192;DHT22;17580;50.850;4.504;2023-05-19T14:29:46;22.90;1.00
10192;DHT22;17580;50.850;4.504;2023-05-19T14:32:13;22.70;1.00
10192;DHT22;17580;50.850;4.504;2023-05-19T14:34:41;22.90;1.00
10192;DHT22;17580;50.850;4.504;2023-05-19T14:37:08;23.00;1.00
10192;DHT22;17580;50.850;4.504;2023-05-19T14:39:35;23.00;1.00
10192;DHT22;17580;50.850;4.504;2023-05-19T14:42:02;22.80;1.00
10192;DHT22;17580;50.850;4.504;2023-05-19T14:44:31;22.60;1.00
10192;DHT22;17580;50.850;4.504;2023-05-19T14:46:58;22.50;1.00
10192;DHT22;17580;50.850;4.504;2023-05-19T14:49:25;22.60;1.00
10192;DHT22;17580;50.850;4.504;2023-05-19T14:51:52;22.60;1.00
10192;DHT22;17580;50.850;4.504;2023-05-19T14:54:19;22.30;1.00
10192;DHT22;17580;50.850;4.504;2023-05-19T14:56:46;22.20;1.00
10192;DHT22;17580;50.850;4.504;2023-05-19T14:59:13;22.20;1.00
10192;DHT22;17580;50.850;4.504;2023-05-19T15:01:42;22.10;1.00
10192;DHT22;17580;50.850;4.504;2023-05-19T15:04:09;22.00;1.00
10192;DHT22;17580;50.850;4.504;2023-05-19T15:06:36;21.90;1.00
10192;DHT22;17580;50.850;4.504;2023-05-19T15:09:03;22.00;1.00
10192;DHT22;17580;50.850;4.504;2023-05-19T15:11:30;21.90;1.00
10192;DHT22;17580;50.850;4.504;2023-05-19T15:13:57;21.90;1.00
10192;DHT22;17580;50.850;4.504;2023-05-19T15:16:24;21.90;1.00
10192;DHT22;17580;50.850;4.504;2023-05-19T15:18:53;21.90;1.00
10192;DHT22;17580;50.850;4.504;2023-05-19T15:21:20;21.80;1.00
10192;DHT22;17580;50.850;4.504;2023-05-19T15:23:47;21.70;1.00
10192;DHT22;17580;50.850;4.504;2023-05-19T15:26:14;21.70;1.00
10192;DHT22;17580;50.850;4.504;2023-05-19T15:28:41;21.60;1.00
10192;DHT22;17580;50.850;4.504;2023-05-19T15:31:08;21.50;1.00
10192;DHT22;17580;50.850;4.504;2023-05-19T15:33:35;21.50;1.00
10192;DHT22;17580;50.850;4.504;2023-05-19T15:36:03;21.60;1.00
10192;DHT22;17580;50.850;4.504;2023-05-19T15:38:34;21.70;1.00
10192;DHT22;17580;50.850;4.504;2023-05-19T15:41:05;21.60;1.00
10192;DHT22;17580;50.850;4.504;2023-05-19T15:43:32;21.60;1.00
10192;DHT22;17580;50.850;4.504;2023-05-19T15:45:59;21.50;1.00
10192;DHT22;17580;50.850;4.504;2023-05-19T15:48:26;21.50;1.00
10192;DHT22;17580;50.850;4.504;2023-05-19T15:50:54;21.30;1.00
10192;DHT22;17580;50.850;4.504;2023-05-19T15:53:24;21.10;1.00
10192;DHT22;17580;50.850;4.504;2023-05-19T15:55:51;21.20;1.00
10192;DHT22;17580;50.850;4.504;2023-05-19T15:58:18;21.20;1.00